createdAt,value
2022-09-24T00:02:14.840Z,16.25
2022-09-24T00:07:17.244Z,16.16
2022-09-24T00:12:19.626Z,15.42
2022-09-24T00:17:22.197Z,14.98
2022-09-24T00:22:24.879Z,15.47
2022-09-24T00:27:28.269Z,15.94
2022-09-24T00:32:30.669Z,15.66
2022-09-24T00:37:33.063Z,14.96
2022-09-24T00:42:35.584Z,14.66
2022-09-24T00:47:42.417Z,14.97
2022-09-24T00:52:58.805Z,15.61
2022-09-24T00:58:06.007Z,15.40
2022-09-24T01:03:12.267Z,14.57
2022-09-24T01:08:16.570Z,14.13
2022-09-24T01:13:25.020Z,14.19
2022-09-24T01:18:39.124Z,15.17
2022-09-24T01:23:56.361Z,15.29
2022-09-24T01:29:15.621Z,15.36
2022-09-24T01:34:27.078Z,14.36
2022-09-24T01:39:31.363Z,13.92
2022-09-24T01:44:35.553Z,14.22
2022-09-24T01:49:38.225Z,14.50
2022-09-24T01:54:50.875Z,14.68
2022-09-24T01:59:58.449Z,14.17
2022-09-24T02:05:33.075Z,14.12
2022-09-24T02:11:12.845Z,14.00
2022-09-24T02:16:18.630Z,14.10
2022-09-24T02:21:24.154Z,15.15
2022-09-24T02:26:26.579Z,14.72
2022-09-24T02:31:39.142Z,14.24
2022-09-24T02:36:41.955Z,14.69
2022-09-24T02:41:49.438Z,15.70
2022-09-24T02:46:52.062Z,15.64
2022-09-24T02:51:56.003Z,14.49
2022-09-24T02:56:58.533Z,13.92
2022-09-24T03:02:01.241Z,13.82
2022-09-24T03:07:03.763Z,14.77
2022-09-24T03:12:06.336Z,15.34
2022-09-24T03:17:08.709Z,15.30
2022-09-24T03:22:11.083Z,15.19
2022-09-24T03:27:13.471Z,14.58
2022-09-24T03:32:15.866Z,14.41
2022-09-24T03:37:18.340Z,14.48
2022-09-24T03:42:20.785Z,14.98
2022-09-24T03:47:23.160Z,14.93
2022-09-24T03:52:26.781Z,15.10
2022-09-24T03:57:29.178Z,15.62
2022-09-24T04:02:31.671Z,15.95
2022-09-24T04:07:34.378Z,15.73
2022-09-24T04:12:37.472Z,15.47
2022-09-24T04:17:39.866Z,15.75
2022-09-24T04:22:42.257Z,16.06
2022-09-24T04:27:45.499Z,16.31
2022-09-24T04:32:48.216Z,15.94
2022-09-24T04:37:50.813Z,15.56
2022-09-24T04:42:53.329Z,15.51
2022-09-24T04:47:58.751Z,15.56
2022-09-24T04:53:01.659Z,14.95
2022-09-24T04:58:04.110Z,15.45
2022-09-24T05:03:06.732Z,15.52
2022-09-24T05:08:09.242Z,14.99
2022-09-24T05:13:11.753Z,14.88
2022-09-24T05:18:14.181Z,15.29
2022-09-24T05:23:16.644Z,15.62
2022-09-24T05:28:19.019Z,15.47
2022-09-24T05:33:21.381Z,15.61
2022-09-24T05:38:24.058Z,15.64
2022-09-24T05:43:27.839Z,15.73
2022-09-24T05:48:30.700Z,15.38
2022-09-24T05:53:34.089Z,15.42
2022-09-24T05:58:36.715Z,14.81
2022-09-24T06:03:39.206Z,15.00
2022-09-24T06:08:41.592Z,15.56
2022-09-24T06:13:44.070Z,16.29
2022-09-24T06:18:47.381Z,15.93
2022-09-24T06:23:49.788Z,16.06
2022-09-24T06:28:52.222Z,16.57
2022-09-24T06:33:54.812Z,16.87
2022-09-24T06:38:58.641Z,17.07
2022-09-24T06:44:01.135Z,17.05
2022-09-24T06:49:03.497Z,16.56
2022-09-24T06:54:06.394Z,15.75
2022-09-24T06:59:09.604Z,16.06
2022-09-24T07:04:12.588Z,16.47
2022-09-24T07:09:15.041Z,16.38
2022-09-24T07:14:17.402Z,16.55
2022-09-24T07:19:19.796Z,16.74
2022-09-24T07:24:22.214Z,16.79
2022-09-24T07:29:24.725Z,16.94
2022-09-24T07:34:27.203Z,17.02
2022-09-24T07:39:29.629Z,17.14
2022-09-24T07:44:32.040Z,17.36
2022-09-24T07:49:34.547Z,17.37
2022-09-24T07:54:37.705Z,17.54
2022-09-24T07:59:41.454Z,17.63
2022-09-24T08:04:44.895Z,17.65
2022-09-24T08:09:47.266Z,17.79
2022-09-24T08:14:49.720Z,17.89
2022-09-24T08:19:53.669Z,17.88
2022-09-24T08:24:57.956Z,18.17
2022-09-24T08:30:00.806Z,18.24
2022-09-24T08:35:03.273Z,18.52
2022-09-24T08:40:06.339Z,18.39
2022-09-24T08:45:30.030Z,18.57
2022-09-24T08:50:36.281Z,19.31
2022-09-24T08:55:49.658Z,19.72
2022-09-24T09:01:13.138Z,19.22
2022-09-24T09:06:54.213Z,19.02
2022-09-24T09:12:04.494Z,19.00
2022-09-24T09:17:45.853Z,18.74
2022-09-24T09:22:51.751Z,17.70
2022-09-24T09:28:01.618Z,17.38
2022-09-24T09:33:22.842Z,16.88
2022-09-24T09:38:50.952Z,17.14
2022-09-24T09:44:00.829Z,16.98
2022-09-24T09:49:06.798Z,16.84
2022-09-24T09:54:09.669Z,16.84
2022-09-24T09:59:12.050Z,16.47
2022-09-24T10:04:35.470Z,16.56
2022-09-24T10:09:39.803Z,16.60
2022-09-24T10:14:43.185Z,16.55
2022-09-24T10:19:47.929Z,16.28
2022-09-24T10:24:51.500Z,16.84
2022-09-24T10:30:14.435Z,16.26
2022-09-24T10:35:23.597Z,16.09
2022-09-24T10:40:40.217Z,16.31
2022-09-24T10:45:57.850Z,16.35
2022-09-24T10:51:18.981Z,16.48
2022-09-24T10:56:45.195Z,17.00
2022-09-24T11:02:30.272Z,17.21
2022-09-24T11:07:52.947Z,16.85
2022-09-24T11:13:01.606Z,16.75
2022-09-24T11:18:28.331Z,16.73
2022-09-24T11:23:54.293Z,16.29
2022-09-24T11:29:12.161Z,16.31
2022-09-24T11:34:27.468Z,16.42
2022-09-24T11:39:32.985Z,16.40
2022-09-24T11:45:03.420Z,16.28
2022-09-24T11:50:30.690Z,16.36
2022-09-24T11:55:49.420Z,16.52
2022-09-24T12:01:10.940Z,16.63
2022-09-24T12:06:24.689Z,16.85
2022-09-24T12:11:42.896Z,16.49
2022-09-24T12:16:50.331Z,16.68
2022-09-24T12:21:55.034Z,16.89
2022-09-24T12:27:00.098Z,17.22
2022-09-24T12:32:45.465Z,17.50
2022-09-24T12:37:53.769Z,16.85
2022-09-24T12:42:58.975Z,16.97
2022-09-24T12:48:02.582Z,17.10
2022-09-24T12:53:24.900Z,16.93
2022-09-24T12:58:29.559Z,17.51
2022-09-24T13:03:46.020Z,18.60
2022-09-24T13:08:50.587Z,18.59
2022-09-24T13:14:14.149Z,18.56
2022-09-24T13:19:41.075Z,18.66
2022-09-24T13:24:49.725Z,18.74
2022-09-24T13:30:07.091Z,18.76
2022-09-24T13:35:22.385Z,18.82
2022-09-24T13:40:33.249Z,18.73
2022-09-24T13:45:41.671Z,19.05
2022-09-24T13:50:50.861Z,18.69
2022-09-24T13:55:55.433Z,18.49
2022-09-24T14:01:06.393Z,18.52
2022-09-24T14:06:15.562Z,18.71
2022-09-24T14:11:24.791Z,18.86
2022-09-24T14:16:27.426Z,19.05
2022-09-24T14:21:36.928Z,19.04
2022-09-24T14:26:45.981Z,18.84
2022-09-24T14:31:58.324Z,18.94
2022-09-24T14:37:10.584Z,18.30
2022-09-24T14:42:21.176Z,18.14
2022-09-24T14:47:35.253Z,18.76
2022-09-24T14:52:40.066Z,19.10
2022-09-24T14:57:48.286Z,19.26
2022-09-24T15:03:05.865Z,19.20
2022-09-24T15:08:24.151Z,19.42
2022-09-24T15:13:30.900Z,19.37
2022-09-24T15:18:35.483Z,18.97
2022-09-24T15:23:38.702Z,18.77
2022-09-24T15:28:41.153Z,18.69
2022-09-24T15:33:43.525Z,18.65
2022-09-24T15:39:00.862Z,18.58
2022-09-24T15:44:03.327Z,18.57
2022-09-24T15:49:06.230Z,18.51
2022-09-24T15:54:09.931Z,18.37
2022-09-24T15:59:15.762Z,18.24
2022-09-24T16:04:18.383Z,18.16
2022-09-24T16:09:20.846Z,18.01
2022-09-24T16:14:23.273Z,18.00
2022-09-24T16:19:25.653Z,17.84
2022-09-24T16:24:31.679Z,17.60
2022-09-24T16:29:34.107Z,17.54
2022-09-24T16:34:36.607Z,17.60
2022-09-24T16:39:39.137Z,17.26
2022-09-24T16:44:41.692Z,17.14
2022-09-24T16:49:44.520Z,16.88
2022-09-24T16:54:46.895Z,16.76
2022-09-24T16:59:49.269Z,16.64
2022-09-24T17:04:54.510Z,16.49
2022-09-24T17:10:15.751Z,16.44
2022-09-24T17:15:20.695Z,16.10
2022-09-24T17:20:23.301Z,16.15
2022-09-24T17:25:26.860Z,15.99
2022-09-24T17:30:29.257Z,15.66
2022-09-24T17:35:31.628Z,15.72
2022-09-24T17:40:34.022Z,15.88
2022-09-24T17:45:36.582Z,15.97
2022-09-24T17:50:38.961Z,16.13
2022-09-24T17:55:51.849Z,15.96
2022-09-24T18:00:55.006Z,15.86
2022-09-24T18:06:06.209Z,15.78
2022-09-24T18:11:12.997Z,15.87
2022-09-24T18:16:17.535Z,16.22
2022-09-24T18:21:22.794Z,16.40
2022-09-24T18:26:49.502Z,16.16
2022-09-24T18:31:53.796Z,16.02
2022-09-24T18:36:56.164Z,16.37
2022-09-24T18:41:58.749Z,16.31
2022-09-24T18:47:01.134Z,16.15
2022-09-24T18:52:03.593Z,15.85
2022-09-24T18:57:06.231Z,15.82
2022-09-24T19:02:14.173Z,15.77
2022-09-24T19:07:16.682Z,15.76
2022-09-24T19:12:19.749Z,15.87
2022-09-24T19:17:25.561Z,15.78
2022-09-24T19:22:28.215Z,15.69
2022-09-24T19:27:30.606Z,15.68
2022-09-24T19:32:34.408Z,15.87
2022-09-24T19:37:36.933Z,15.82
2022-09-24T19:42:39.450Z,15.68
2022-09-24T19:47:41.859Z,15.74
2022-09-24T19:52:44.371Z,15.61
2022-09-24T19:57:46.830Z,15.57
2022-09-24T20:02:49.304Z,15.58
2022-09-24T20:07:51.770Z,15.68
2022-09-24T20:12:54.593Z,15.73
2022-09-24T20:17:57.087Z,15.69
2022-09-24T20:23:00.086Z,15.51
2022-09-24T20:28:02.636Z,15.66
2022-09-24T20:33:09.142Z,15.81
2022-09-24T20:38:12.183Z,15.72
2022-09-24T20:43:14.559Z,15.75
2022-09-24T20:48:17.320Z,15.87
2022-09-24T20:53:20.417Z,15.80
2022-09-24T20:58:22.804Z,15.65
2022-09-24T21:03:43.283Z,15.42
2022-09-24T21:08:47.389Z,15.07
2022-09-24T21:13:52.573Z,15.01
2022-09-24T21:18:55.726Z,15.15
2022-09-24T21:24:00.506Z,14.78
2022-09-24T21:29:09.889Z,14.54
2022-09-24T21:34:17.191Z,14.73
2022-09-24T21:39:24.282Z,14.77
2022-09-24T21:44:28.959Z,14.86
2022-09-24T21:49:33.603Z,14.85
2022-09-24T21:54:36.718Z,14.75
2022-09-24T21:59:57.822Z,14.82
2022-09-24T22:05:01.561Z,15.02
2022-09-24T22:10:04.550Z,14.89
2022-09-24T22:15:07.573Z,14.82
2022-09-24T22:20:10.170Z,14.91
2022-09-24T22:25:12.555Z,14.90
2022-09-24T22:30:14.984Z,14.47
2022-09-24T22:35:40.880Z,14.36
2022-09-24T22:40:45.460Z,14.46
2022-09-24T22:45:47.976Z,14.49
2022-09-24T22:50:50.416Z,14.48
2022-09-24T22:56:07.986Z,14.45
2022-09-24T23:01:15.972Z,14.63
2022-09-24T23:06:20.872Z,14.80
2022-09-24T23:11:31.920Z,14.36
2022-09-24T23:16:36.941Z,14.36
2022-09-24T23:21:39.622Z,14.47
2022-09-24T23:26:42.252Z,14.49
2022-09-24T23:31:44.683Z,14.52
2022-09-24T23:36:47.358Z,14.35
2022-09-24T23:41:50.214Z,14.16
2022-09-24T23:46:52.589Z,14.29
2022-09-24T23:51:55.371Z,14.21
2022-09-24T23:56:58.005Z,14.14
